sensor_id;sensor_type;location;lat;lon;timestamp;pressure;altitude;pressure_sealevel;temperature;humidity
73024;BME280;61199;47.526;8.538;2023-03-04T00:02:04;96881.22;;;7.63;63.65
73024;BME280;61199;47.526;8.538;2023-03-04T00:04:30;96886.75;;;7.58;63.70
73024;BME280;61199;47.526;8.538;2023-03-04T00:06:57;96887.59;;;7.59;63.45
73024;BME280;61199;47.526;8.538;2023-03-04T00:09:23;96890.41;;;7.56;63.81
73024;BME280;61199;47.526;8.538;2023-03-04T00:11:49;96889.91;;;7.51;63.93
73024;BME280;61199;47.526;8.538;2023-03-04T00:14:16;96888.22;;;7.50;63.78
73024;BME280;61199;47.526;8.538;2023-03-04T00:16:42;96893.53;;;7.36;64.00
73024;BME280;61199;47.526;8.538;2023-03-04T00:19:09;96893.75;;;7.33;64.45
73024;BME280;61199;47.526;8.538;2023-03-04T00:21:36;96893.00;;;7.43;64.27
73024;BME280;61199;47.526;8.538;2023-03-04T00:24:02;96899.47;;;7.38;63.87
73024;BME280;61199;47.526;8.538;2023-03-04T00:26:29;96898.13;;;7.45;63.76
73024;BME280;61199;47.526;8.538;2023-03-04T00:28:55;96908.53;;;7.45;63.56
73024;BME280;61199;47.526;8.538;2023-03-04T00:31:21;96904.69;;;7.38;64.04
73024;BME280;61199;47.526;8.538;2023-03-04T00:33:48;96899.66;;;7.22;64.10
73024;BME280;61199;47.526;8.538;2023-03-04T00:36:15;96905.50;;;7.26;63.81
73024;BME280;61199;47.526;8.538;2023-03-04T00:38:41;96895.41;;;7.21;63.75
73024;BME280;61199;47.526;8.538;2023-03-04T00:41:07;96907.56;;;7.21;63.99
73024;BME280;61199;47.526;8.538;2023-03-04T00:43:34;96903.91;;;7.11;63.82
73024;BME280;61199;47.526;8.538;2023-03-04T00:46:00;96910.91;;;7.10;64.36
73024;BME280;61199;47.526;8.538;2023-03-04T00:48:27;96901.44;;;7.09;64.14
73024;BME280;61199;47.526;8.538;2023-03-04T00:50:53;96893.19;;;7.03;64.32
73024;BME280;61199;47.526;8.538;2023-03-04T00:53:20;96890.47;;;7.04;64.27
73024;BME280;61199;47.526;8.538;2023-03-04T00:55:46;96896.63;;;7.03;63.88
73024;BME280;61199;47.526;8.538;2023-03-04T00:58:13;96894.41;;;6.97;64.11
73024;BME280;61199;47.526;8.538;2023-03-04T01:00:39;96896.41;;;6.94;63.87
73024;BME280;61199;47.526;8.538;2023-03-04T01:03:05;96895.00;;;6.76;64.44
73024;BME280;61199;47.526;8.538;2023-03-04T01:05:32;96890.72;;;6.75;64.79
73024;BME280;61199;47.526;8.538;2023-03-04T01:08:01;96884.25;;;6.68;64.92
73024;BME280;61199;47.526;8.538;2023-03-04T01:10:27;96890.56;;;6.64;64.56
73024;BME280;61199;47.526;8.538;2023-03-04T01:12:54;96886.69;;;6.44;65.79
73024;BME280;61199;47.526;8.538;2023-03-04T01:15:20;96884.09;;;6.57;65.33
73024;BME280;61199;47.526;8.538;2023-03-04T01:17:47;96885.19;;;6.67;65.26
73024;BME280;61199;47.526;8.538;2023-03-04T01:20:14;96889.97;;;6.73;64.85
73024;BME280;61199;47.526;8.538;2023-03-04T01:22:40;96881.44;;;6.71;64.57
73024;BME280;61199;47.526;8.538;2023-03-04T01:25:07;96882.59;;;6.67;64.58
73024;BME280;61199;47.526;8.538;2023-03-04T01:27:34;96882.69;;;6.65;65.05
73024;BME280;61199;47.526;8.538;2023-03-04T01:30:00;96877.03;;;6.59;64.87
73024;BME280;61199;47.526;8.538;2023-03-04T01:32:26;96874.53;;;6.57;64.98
73024;BME280;61199;47.526;8.538;2023-03-04T01:34:53;96875.97;;;6.49;65.03
73024;BME280;61199;47.526;8.538;2023-03-04T01:37:19;96871.38;;;6.40;64.71
73024;BME280;61199;47.526;8.538;2023-03-04T01:39:46;96870.31;;;6.42;65.18
73024;BME280;61199;47.526;8.538;2023-03-04T01:42:17;96866.34;;;6.37;64.56
73024;BME280;61199;47.526;8.538;2023-03-04T01:44:46;96874.06;;;6.38;65.02
73024;BME280;61199;47.526;8.538;2023-03-04T01:47:12;96864.50;;;6.39;64.62
73024;BME280;61199;47.526;8.538;2023-03-04T01:49:39;96872.53;;;6.22;64.92
73024;BME280;61199;47.526;8.538;2023-03-04T01:52:11;96867.78;;;6.28;64.90
73024;BME280;61199;47.526;8.538;2023-03-04T01:54:39;96863.31;;;6.30;64.73
73024;BME280;61199;47.526;8.538;2023-03-04T01:57:14;96867.69;;;6.30;64.98
73024;BME280;61199;47.526;8.538;2023-03-04T01:59:41;96865.81;;;6.32;65.10
73024;BME280;61199;47.526;8.538;2023-03-04T02:02:08;96865.16;;;6.28;65.50
73024;BME280;61199;47.526;8.538;2023-03-04T02:04:35;96861.72;;;6.28;64.91
73024;BME280;61199;47.526;8.538;2023-03-04T02:07:03;96863.31;;;6.30;64.88
73024;BME280;61199;47.526;8.538;2023-03-04T02:09:30;96859.03;;;6.29;64.25
73024;BME280;61199;47.526;8.538;2023-03-04T02:11:57;96857.31;;;6.16;64.46
73024;BME280;61199;47.526;8.538;2023-03-04T02:14:24;96859.19;;;6.14;64.57
73024;BME280;61199;47.526;8.538;2023-03-04T02:16:52;96859.34;;;6.11;64.89
73024;BME280;61199;47.526;8.538;2023-03-04T02:19:28;96848.22;;;6.09;64.82
73024;BME280;61199;47.526;8.538;2023-03-04T02:21:56;96851.75;;;6.08;65.20
73024;BME280;61199;47.526;8.538;2023-03-04T02:24:32;96854.56;;;6.05;65.05
73024;BME280;61199;47.526;8.538;2023-03-04T02:27:01;96848.91;;;5.98;65.11
73024;BME280;61199;47.526;8.538;2023-03-04T02:29:27;96850.75;;;5.96;65.20
73024;BME280;61199;47.526;8.538;2023-03-04T02:31:54;96849.75;;;5.99;65.14
73024;BME280;61199;47.526;8.538;2023-03-04T02:34:24;96844.91;;;5.93;66.22
73024;BME280;61199;47.526;8.538;2023-03-04T02:36:52;96846.97;;;5.88;66.00
73024;BME280;61199;47.526;8.538;2023-03-04T02:41:47;96845.03;;;5.91;65.75
73024;BME280;61199;47.526;8.538;2023-03-04T02:44:17;96839.91;;;5.90;65.61
73024;BME280;61199;47.526;8.538;2023-03-04T02:46:44;96847.50;;;5.93;65.51
73024;BME280;61199;47.526;8.538;2023-03-04T02:49:11;96847.63;;;5.91;65.33
73024;BME280;61199;47.526;8.538;2023-03-04T02:51:38;96841.88;;;5.86;65.44
73024;BME280;61199;47.526;8.538;2023-03-04T02:54:13;96844.06;;;5.78;65.38
73024;BME280;61199;47.526;8.538;2023-03-04T02:56:48;96851.06;;;5.78;65.60
73024;BME280;61199;47.526;8.538;2023-03-04T02:59:15;96842.53;;;5.76;65.86
73024;BME280;61199;47.526;8.538;2023-03-04T03:01:42;96844.19;;;5.77;65.97
73024;BME280;61199;47.526;8.538;2023-03-04T03:04:08;96849.56;;;5.74;66.04
73024;BME280;61199;47.526;8.538;2023-03-04T03:06:35;96850.78;;;5.68;65.71
73024;BME280;61199;47.526;8.538;2023-03-04T03:09:02;96847.53;;;5.65;66.17
73024;BME280;61199;47.526;8.538;2023-03-04T03:11:29;96850.41;;;5.60;65.71
73024;BME280;61199;47.526;8.538;2023-03-04T03:13:55;96843.09;;;5.53;65.45
73024;BME280;61199;47.526;8.538;2023-03-04T03:16:22;96851.09;;;5.50;65.96
73024;BME280;61199;47.526;8.538;2023-03-04T03:18:49;96841.22;;;5.55;65.40
73024;BME280;61199;47.526;8.538;2023-03-04T03:21:16;96850.44;;;5.47;65.74
73024;BME280;61199;47.526;8.538;2023-03-04T03:23:42;96843.56;;;5.46;65.58
73024;BME280;61199;47.526;8.538;2023-03-04T03:26:08;96843.75;;;5.43;66.00
73024;BME280;61199;47.526;8.538;2023-03-04T03:28:35;96841.63;;;5.35;66.10
73024;BME280;61199;47.526;8.538;2023-03-04T03:31:02;96836.41;;;5.35;66.03
73024;BME280;61199;47.526;8.538;2023-03-04T03:33:28;96837.72;;;5.42;65.65
73024;BME280;61199;47.526;8.538;2023-03-04T03:35:55;96839.59;;;5.40;65.37
73024;BME280;61199;47.526;8.538;2023-03-04T03:38:23;96844.59;;;5.43;65.66
73024;BME280;61199;47.526;8.538;2023-03-04T03:40:50;96838.53;;;5.43;65.55
73024;BME280;61199;47.526;8.538;2023-03-04T03:43:16;96839.59;;;5.40;65.64
73024;BME280;61199;47.526;8.538;2023-03-04T03:45:42;96837.28;;;5.36;65.26
73024;BME280;61199;47.526;8.538;2023-03-04T03:48:09;96835.59;;;5.35;65.62
73024;BME280;61199;47.526;8.538;2023-03-04T03:50:35;96839.94;;;5.34;65.03
73024;BME280;61199;47.526;8.538;2023-03-04T03:53:02;96838.94;;;5.37;65.45
73024;BME280;61199;47.526;8.538;2023-03-04T03:55:28;96828.81;;;5.32;65.05
73024;BME280;61199;47.526;8.538;2023-03-04T03:57:55;96839.56;;;5.26;65.17
73024;BME280;61199;47.526;8.538;2023-03-04T04:00:22;96840.16;;;5.31;64.99
73024;BME280;61199;47.526;8.538;2023-03-04T04:02:48;96838.28;;;5.33;65.27
73024;BME280;61199;47.526;8.538;2023-03-04T04:05:14;96846.16;;;5.18;65.54
73024;BME280;61199;47.526;8.538;2023-03-04T04:07:41;96844.38;;;5.18;65.18
73024;BME280;61199;47.526;8.538;2023-03-04T04:10:09;96845.50;;;5.14;65.57
73024;BME280;61199;47.526;8.538;2023-03-04T04:12:36;96843.66;;;5.16;65.74
73024;BME280;61199;47.526;8.538;2023-03-04T04:15:02;96848.75;;;5.18;65.75
73024;BME280;61199;47.526;8.538;2023-03-04T04:17:29;96841.25;;;5.13;65.88
73024;BME280;61199;47.526;8.538;2023-03-04T04:19:55;96843.09;;;5.11;65.56
73024;BME280;61199;47.526;8.538;2023-03-04T04:22:21;96847.53;;;5.09;65.61
73024;BME280;61199;47.526;8.538;2023-03-04T04:24:48;96848.31;;;5.11;65.49
73024;BME280;61199;47.526;8.538;2023-03-04T04:27:14;96846.44;;;5.13;65.36
73024;BME280;61199;47.526;8.538;2023-03-04T04:29:41;96844.00;;;5.10;65.44
73024;BME280;61199;47.526;8.538;2023-03-04T04:32:07;96850.97;;;5.10;65.57
73024;BME280;61199;47.526;8.538;2023-03-04T04:34:34;96849.03;;;5.13;65.28
73024;BME280;61199;47.526;8.538;2023-03-04T04:37:00;96852.56;;;5.12;65.55
73024;BME280;61199;47.526;8.538;2023-03-04T04:39:27;96851.72;;;5.12;65.52
73024;BME280;61199;47.526;8.538;2023-03-04T04:41:53;96854.38;;;5.10;65.47
73024;BME280;61199;47.526;8.538;2023-03-04T04:44:19;96856.44;;;5.05;65.33
73024;BME280;61199;47.526;8.538;2023-03-04T04:46:46;96862.44;;;5.06;64.91
73024;BME280;61199;47.526;8.538;2023-03-04T04:49:12;96854.78;;;5.04;65.30
73024;BME280;61199;47.526;8.538;2023-03-04T04:51:39;96863.91;;;4.96;65.28
73024;BME280;61199;47.526;8.538;2023-03-04T04:54:06;96864.69;;;4.98;65.73
73024;BME280;61199;47.526;8.538;2023-03-04T04:56:32;96871.81;;;4.94;65.74
73024;BME280;61199;47.526;8.538;2023-03-04T04:59:02;96866.78;;;4.91;65.94
73024;BME280;61199;47.526;8.538;2023-03-04T05:01:30;96870.41;;;4.89;65.41
73024;BME280;61199;47.526;8.538;2023-03-04T05:03:56;96863.63;;;4.86;65.27
73024;BME280;61199;47.526;8.538;2023-03-04T05:06:23;96864.50;;;4.71;66.00
73024;BME280;61199;47.526;8.538;2023-03-04T05:08:50;96869.72;;;4.71;65.89
73024;BME280;61199;47.526;8.538;2023-03-04T05:11:18;96874.22;;;4.68;66.30
73024;BME280;61199;47.526;8.538;2023-03-04T05:13:45;96869.50;;;4.74;65.92
73024;BME280;61199;47.526;8.538;2023-03-04T05:16:12;96869.72;;;4.71;66.25
73024;BME280;61199;47.526;8.538;2023-03-04T05:18:39;96870.72;;;4.69;66.13
73024;BME280;61199;47.526;8.538;2023-03-04T05:21:06;96871.91;;;4.63;66.06
73024;BME280;61199;47.526;8.538;2023-03-04T05:23:35;96877.50;;;4.71;65.78
73024;BME280;61199;47.526;8.538;2023-03-04T05:26:04;96871.56;;;4.69;66.24
73024;BME280;61199;47.526;8.538;2023-03-04T05:28:31;96870.03;;;4.65;65.94
73024;BME280;61199;47.526;8.538;2023-03-04T05:30:58;96867.91;;;4.58;65.99
73024;BME280;61199;47.526;8.538;2023-03-04T05:33:24;96875.66;;;4.44;66.68
73024;BME280;61199;47.526;8.538;2023-03-04T05:35:51;96871.78;;;4.35;66.56
73024;BME280;61199;47.526;8.538;2023-03-04T05:38:18;96871.66;;;4.38;67.18
73024;BME280;61199;47.526;8.538;2023-03-04T05:40:46;96873.78;;;4.46;66.61
73024;BME280;61199;47.526;8.538;2023-03-04T05:43:14;96874.06;;;4.41;67.04
73024;BME280;61199;47.526;8.538;2023-03-04T05:45:40;96874.06;;;4.41;66.93
73024;BME280;61199;47.526;8.538;2023-03-04T05:48:07;96871.66;;;4.38;66.75
73024;BME280;61199;47.526;8.538;2023-03-04T05:50:34;96873.13;;;4.42;66.79
73024;BME280;61199;47.526;8.538;2023-03-04T05:53:01;96874.97;;;4.40;66.43
73024;BME280;61199;47.526;8.538;2023-03-04T05:55:27;96873.38;;;4.38;66.03
73024;BME280;61199;47.526;8.538;2023-03-04T05:57:55;96877.16;;;4.32;66.77
73024;BME280;61199;47.526;8.538;2023-03-04T06:00:23;96874.56;;;4.32;66.08
73024;BME280;61199;47.526;8.538;2023-03-04T06:02:52;96880.69;;;4.31;66.30
73024;BME280;61199;47.526;8.538;2023-03-04T06:05:19;96881.19;;;4.22;66.73
73024;BME280;61199;47.526;8.538;2023-03-04T06:07:46;96881.28;;;4.21;66.87
73024;BME280;61199;47.526;8.538;2023-03-04T06:10:14;96884.53;;;4.09;67.32
73024;BME280;61199;47.526;8.538;2023-03-04T06:12:41;96886.22;;;4.10;67.68
73024;BME280;61199;47.526;8.538;2023-03-04T06:15:08;96887.63;;;4.15;67.38
73024;BME280;61199;47.526;8.538;2023-03-04T06:17:39;96896.91;;;4.19;67.82
73024;BME280;61199;47.526;8.538;2023-03-04T06:20:08;96902.59;;;4.26;66.89
73024;BME280;61199;47.526;8.538;2023-03-04T06:22:35;96901.75;;;4.25;67.46
73024;BME280;61199;47.526;8.538;2023-03-04T06:25:02;96904.94;;;4.30;67.28
73024;BME280;61199;47.526;8.538;2023-03-04T06:27:29;96906.59;;;4.31;67.29
73024;BME280;61199;47.526;8.538;2023-03-04T06:29:55;96911.69;;;4.33;67.29
73024;BME280;61199;47.526;8.538;2023-03-04T06:32:22;96915.88;;;4.35;66.77
73024;BME280;61199;47.526;8.538;2023-03-04T06:34:48;96921.97;;;4.34;66.89
73024;BME280;61199;47.526;8.538;2023-03-04T06:37:14;96920.31;;;4.33;67.60
73024;BME280;61199;47.526;8.538;2023-03-04T06:39:41;96927.16;;;4.34;67.78
73024;BME280;61199;47.526;8.538;2023-03-04T06:42:07;96918.22;;;4.24;67.44
73024;BME280;61199;47.526;8.538;2023-03-04T06:44:33;96925.50;;;4.33;67.89
73024;BME280;61199;47.526;8.538;2023-03-04T06:47:00;96934.03;;;4.35;68.26
73024;BME280;61199;47.526;8.538;2023-03-04T06:49:26;96931.03;;;4.43;67.60
73024;BME280;61199;47.526;8.538;2023-03-04T06:51:53;96937.03;;;4.43;67.91
73024;BME280;61199;47.526;8.538;2023-03-04T06:54:19;96933.50;;;4.44;68.04
73024;BME280;61199;47.526;8.538;2023-03-04T06:56:46;96935.09;;;4.47;67.77
73024;BME280;61199;47.526;8.538;2023-03-04T06:59:12;96935.78;;;4.35;67.71
73024;BME280;61199;47.526;8.538;2023-03-04T07:01:39;96937.78;;;4.45;67.66
73024;BME280;61199;47.526;8.538;2023-03-04T07:04:05;96938.88;;;4.41;67.45
73024;BME280;61199;47.526;8.538;2023-03-04T07:06:31;96941.78;;;4.51;66.96
73024;BME280;61199;47.526;8.538;2023-03-04T07:08:58;96940.84;;;4.52;67.75
73024;BME280;61199;47.526;8.538;2023-03-04T07:11:24;96938.78;;;4.58;66.83
73024;BME280;61199;47.526;8.538;2023-03-04T07:13:51;96939.59;;;4.59;67.06
73024;BME280;61199;47.526;8.538;2023-03-04T07:16:20;96943.03;;;4.59;67.67
73024;BME280;61199;47.526;8.538;2023-03-04T07:18:47;96948.22;;;4.59;67.48
73024;BME280;61199;47.526;8.538;2023-03-04T07:21:14;96946.38;;;4.61;67.63
73024;BME280;61199;47.526;8.538;2023-03-04T07:23:41;96940.19;;;4.64;67.41
73024;BME280;61199;47.526;8.538;2023-03-04T07:26:07;96956.56;;;4.64;67.27
73024;BME280;61199;47.526;8.538;2023-03-04T07:28:34;96943.03;;;4.59;67.28
73024;BME280;61199;47.526;8.538;2023-03-04T07:33:41;96950.88;;;4.73;67.46
73024;BME280;61199;47.526;8.538;2023-03-04T07:36:08;96945.69;;;4.73;67.20
73024;BME280;61199;47.526;8.538;2023-03-04T07:38:34;96943.69;;;4.78;67.29
73024;BME280;61199;47.526;8.538;2023-03-04T07:41:01;96956.66;;;4.78;67.20
73024;BME280;61199;47.526;8.538;2023-03-04T07:43:28;96959.16;;;4.80;67.00
73024;BME280;61199;47.526;8.538;2023-03-04T07:45:59;96955.72;;;4.79;67.82
73024;BME280;61199;47.526;8.538;2023-03-04T07:48:27;96950.94;;;4.87;67.83
73024;BME280;61199;47.526;8.538;2023-03-04T07:51:11;96953.59;;;4.86;67.67
73024;BME280;61199;47.526;8.538;2023-03-04T07:53:39;96954.28;;;4.89;68.19
73024;BME280;61199;47.526;8.538;2023-03-04T07:56:07;96957.34;;;4.96;68.10
73024;BME280;61199;47.526;8.538;2023-03-04T07:58:35;96960.53;;;5.01;67.75
73024;BME280;61199;47.526;8.538;2023-03-04T08:01:17;96954.34;;;5.03;67.69
73024;BME280;61199;47.526;8.538;2023-03-04T08:03:44;96954.44;;;5.16;67.62
73024;BME280;61199;47.526;8.538;2023-03-04T08:06:12;96952.06;;;5.27;67.46
73024;BME280;61199;47.526;8.538;2023-03-04T08:08:39;96954.41;;;5.31;67.00
73024;BME280;61199;47.526;8.538;2023-03-04T08:11:09;96952.47;;;5.35;67.51
73024;BME280;61199;47.526;8.538;2023-03-04T08:13:35;96952.09;;;5.41;66.95
73024;BME280;61199;47.526;8.538;2023-03-04T08:16:02;96952.53;;;5.33;67.59
73024;BME280;61199;47.526;8.538;2023-03-04T08:18:29;96952.81;;;5.43;67.07
73024;BME280;61199;47.526;8.538;2023-03-04T08:20:55;96957.06;;;5.30;67.54
73024;BME280;61199;47.526;8.538;2023-03-04T08:23:22;96954.47;;;5.30;67.86
73024;BME280;61199;47.526;8.538;2023-03-04T08:25:48;96950.88;;;5.46;67.66
73024;BME280;61199;47.526;8.538;2023-03-04T08:28:15;96950.84;;;5.62;68.14
73024;BME280;61199;47.526;8.538;2023-03-04T08:30:42;96949.59;;;5.53;68.26
73024;BME280;61199;47.526;8.538;2023-03-04T08:33:09;96947.94;;;5.52;68.40
73024;BME280;61199;47.526;8.538;2023-03-04T08:35:37;96945.72;;;5.60;68.32
73024;BME280;61199;47.526;8.538;2023-03-04T08:38:05;96948.66;;;5.54;68.69
73024;BME280;61199;47.526;8.538;2023-03-04T08:40:32;96942.66;;;5.67;67.92
73024;BME280;61199;47.526;8.538;2023-03-04T08:42:58;96949.41;;;5.56;68.36
73024;BME280;61199;47.526;8.538;2023-03-04T08:45:24;96946.91;;;5.68;68.12
73024;BME280;61199;47.526;8.538;2023-03-04T08:47:52;96949.81;;;5.78;67.39
73024;BME280;61199;47.526;8.538;2023-03-04T08:50:18;96943.88;;;5.76;67.84
73024;BME280;61199;47.526;8.538;2023-03-04T08:52:47;96948.03;;;5.78;67.97
73024;BME280;61199;47.526;8.538;2023-03-04T08:55:14;96947.78;;;5.83;67.86
73024;BME280;61199;47.526;8.538;2023-03-04T08:57:40;96946.75;;;5.85;67.28
73024;BME280;61199;47.526;8.538;2023-03-04T09:00:07;96947.44;;;6.03;66.93
73024;BME280;61199;47.526;8.538;2023-03-04T09:02:34;96945.06;;;6.12;66.83
73024;BME280;61199;47.526;8.538;2023-03-04T09:05:00;96939.31;;;6.21;66.09
73024;BME280;61199;47.526;8.538;2023-03-04T09:07:26;96941.25;;;6.32;65.80
73024;BME280;61199;47.526;8.538;2023-03-04T09:09:53;96941.81;;;6.23;66.10
73024;BME280;61199;47.526;8.538;2023-03-04T09:12:19;96942.25;;;6.29;65.83
73024;BME280;61199;47.526;8.538;2023-03-04T09:14:45;96942.72;;;6.36;65.71
73024;BME280;61199;47.526;8.538;2023-03-04T09:17:23;96937.50;;;6.36;65.47
73024;BME280;61199;47.526;8.538;2023-03-04T09:19:49;96944.81;;;6.43;64.96
73024;BME280;61199;47.526;8.538;2023-03-04T09:22:16;96941.56;;;6.54;64.44
73024;BME280;61199;47.526;8.538;2023-03-04T09:24:42;96942.28;;;6.56;63.82
73024;BME280;61199;47.526;8.538;2023-03-04T09:27:08;96932.81;;;6.55;62.96
73024;BME280;61199;47.526;8.538;2023-03-04T09:29:35;96934.09;;;6.62;62.87
73024;BME280;61199;47.526;8.538;2023-03-04T09:32:01;96932.88;;;6.41;62.72
73024;BME280;61199;47.526;8.538;2023-03-04T09:34:28;96937.34;;;6.39;62.87
73024;BME280;61199;47.526;8.538;2023-03-04T09:36:54;96918.28;;;6.65;62.20
73024;BME280;61199;47.526;8.538;2023-03-04T09:39:20;96924.03;;;6.70;62.28
73024;BME280;61199;47.526;8.538;2023-03-04T09:41:52;96931.00;;;6.96;61.21
73024;BME280;61199;47.526;8.538;2023-03-04T09:44:30;96924.31;;;7.04;61.38
73024;BME280;61199;47.526;8.538;2023-03-04T09:47:03;96920.47;;;7.10;61.27
73024;BME280;61199;47.526;8.538;2023-03-04T09:49:31;96922.78;;;7.14;60.82
73024;BME280;61199;47.526;8.538;2023-03-04T09:52:08;96921.34;;;7.23;60.54
73024;BME280;61199;47.526;8.538;2023-03-04T09:55:24;96921.88;;;7.28;60.13
73024;BME280;61199;47.526;8.538;2023-03-04T09:58:55;96923.75;;;7.26;60.93
73024;BME280;61199;47.526;8.538;2023-03-04T10:01:02;96916.56;;;7.42;60.32
73024;BME280;61199;47.526;8.538;2023-03-04T10:03:44;96918.44;;;7.65;59.90
73024;BME280;61199;47.526;8.538;2023-03-04T10:06:19;96917.00;;;7.86;59.66
73024;BME280;61199;47.526;8.538;2023-03-04T10:08:59;96909.97;;;7.99;59.32
73024;BME280;61199;47.526;8.538;2023-03-04T10:11:32;96913.59;;;8.09;58.89
73024;BME280;61199;47.526;8.538;2023-03-04T10:14:07;96912.66;;;8.22;58.79
73024;BME280;61199;47.526;8.538;2023-03-04T10:19:43;96914.94;;;8.14;58.95
73024;BME280;61199;47.526;8.538;2023-03-04T10:22:22;96905.41;;;8.38;58.36
73024;BME280;61199;47.526;8.538;2023-03-04T10:24:52;96908.19;;;8.48;58.12
73024;BME280;61199;47.526;8.538;2023-03-04T10:27:21;96907.84;;;8.52;57.71
73024;BME280;61199;47.526;8.538;2023-03-04T10:29:49;96901.81;;;8.52;57.48
73024;BME280;61199;47.526;8.538;2023-03-04T10:32:18;96892.53;;;8.71;57.39
73024;BME280;61199;47.526;8.538;2023-03-04T10:34:45;96899.34;;;8.84;57.45
73024;BME280;61199;47.526;8.538;2023-03-04T10:37:12;96897.25;;;8.89;56.87
73024;BME280;61199;47.526;8.538;2023-03-04T10:39:44;96895.16;;;8.94;57.03
73024;BME280;61199;47.526;8.538;2023-03-04T10:44:51;96883.16;;;8.92;56.82
73024;BME280;61199;47.526;8.538;2023-03-04T10:47:18;96878.91;;;9.02;56.65
73024;BME280;61199;47.526;8.538;2023-03-04T10:50:03;96873.47;;;9.16;56.43
73024;BME280;61199;47.526;8.538;2023-03-04T10:52:35;96876.59;;;8.86;57.44
73024;BME280;61199;47.526;8.538;2023-03-04T10:55:15;96874.75;;;8.29;59.34
73024;BME280;61199;47.526;8.538;2023-03-04T10:57:44;96870.69;;;8.49;59.49
73024;BME280;61199;47.526;8.538;2023-03-04T11:02:43;96866.47;;;9.16;57.90
73024;BME280;61199;47.526;8.538;2023-03-04T11:07:50;96852.63;;;9.38;56.88
73024;BME280;61199;47.526;8.538;2023-03-04T11:13:16;96843.63;;;8.96;58.41
73024;BME280;61199;47.526;8.538;2023-03-04T11:15:56;96848.06;;;8.83;58.44
73024;BME280;61199;47.526;8.538;2023-03-04T11:21:16;96840.59;;;9.24;57.96
73024;BME280;61199;47.526;8.538;2023-03-04T11:23:54;96846.94;;;9.66;57.05
73024;BME280;61199;47.526;8.538;2023-03-04T11:26:27;96840.75;;;10.00;56.07
73024;BME280;61199;47.526;8.538;2023-03-04T11:28:59;96842.03;;;10.16;55.44
73024;BME280;61199;47.526;8.538;2023-03-04T11:31:39;96836.34;;;9.78;56.14
73024;BME280;61199;47.526;8.538;2023-03-04T11:34:16;96837.06;;;9.69;56.55
73024;BME280;61199;47.526;8.538;2023-03-04T11:42:40;96826.59;;;10.02;54.90
73024;BME280;61199;47.526;8.538;2023-03-04T11:45:14;96826.06;;;10.41;54.44
73024;BME280;61199;47.526;8.538;2023-03-04T11:48:05;96822.53;;;10.52;54.04
73024;BME280;61199;47.526;8.538;2023-03-04T11:56:43;96809.25;;;10.96;52.74
73024;BME280;61199;47.526;8.538;2023-03-04T11:59:32;96803.72;;;11.10;52.56
73024;BME280;61199;47.526;8.538;2023-03-04T12:07:58;96797.38;;;11.63;50.00
73024;BME280;61199;47.526;8.538;2023-03-04T12:13:33;96788.69;;;12.01;49.73
73024;BME280;61199;47.526;8.538;2023-03-04T12:16:31;96786.94;;;11.72;50.42
73024;BME280;61199;47.526;8.538;2023-03-04T12:19:11;96772.53;;;12.15;50.40
73024;BME280;61199;47.526;8.538;2023-03-04T12:22:00;96766.91;;;12.58;49.06
73024;BME280;61199;47.526;8.538;2023-03-04T12:25:07;96755.53;;;12.86;48.20
73024;BME280;61199;47.526;8.538;2023-03-04T12:33:37;96752.06;;;13.60;46.05
73024;BME280;61199;47.526;8.538;2023-03-04T12:36:33;96746.38;;;13.91;45.06
73024;BME280;61199;47.526;8.538;2023-03-04T12:41:55;96741.81;;;14.20;43.80
73024;BME280;61199;47.526;8.538;2023-03-04T12:44:26;96738.66;;;14.52;43.63
73024;BME280;61199;47.526;8.538;2023-03-04T12:53:12;96716.66;;;14.43;41.96
73024;BME280;61199;47.526;8.538;2023-03-04T12:55:44;96721.41;;;14.57;41.76
73024;BME280;61199;47.526;8.538;2023-03-04T12:58:23;96713.78;;;14.72;41.44
73024;BME280;61199;47.526;8.538;2023-03-04T13:01:23;96714.00;;;14.78;42.12
73024;BME280;61199;47.526;8.538;2023-03-04T13:04:29;96712.63;;;14.91;41.34
73024;BME280;61199;47.526;8.538;2023-03-04T13:07:03;96705.50;;;15.35;40.43
73024;BME280;61199;47.526;8.538;2023-03-04T13:09:50;96703.19;;;15.65;40.03
73024;BME280;61199;47.526;8.538;2023-03-04T13:12:20;96701.25;;;15.16;40.32
73024;BME280;61199;47.526;8.538;2023-03-04T13:15:15;96695.16;;;14.90;40.51
73024;BME280;61199;47.526;8.538;2023-03-04T13:17:46;96688.69;;;13.98;41.66
73024;BME280;61199;47.526;8.538;2023-03-04T13:25:41;96677.25;;;14.42;42.13
73024;BME280;61199;47.526;8.538;2023-03-04T13:44:30;96665.41;;;16.86;37.20
73024;BME280;61199;47.526;8.538;2023-03-04T13:46:53;96658.94;;;15.67;38.60
73024;BME280;61199;47.526;8.538;2023-03-04T13:49:21;96655.59;;;16.07;38.43
73024;BME280;61199;47.526;8.538;2023-03-04T13:51:49;96653.81;;;16.31;37.96
73024;BME280;61199;47.526;8.538;2023-03-04T13:54:29;96655.97;;;16.36;37.77
73024;BME280;61199;47.526;8.538;2023-03-04T13:59:37;96650.16;;;16.00;38.81
73024;BME280;61199;47.526;8.538;2023-03-04T14:02:14;96654.84;;;16.38;37.51
73024;BME280;61199;47.526;8.538;2023-03-04T14:04:44;96648.50;;;15.99;38.17
73024;BME280;61199;47.526;8.538;2023-03-04T14:07:23;96648.22;;;15.27;39.19
73024;BME280;61199;47.526;8.538;2023-03-04T14:09:59;96655.25;;;14.93;40.10
73024;BME280;61199;47.526;8.538;2023-03-04T14:12:30;96654.94;;;14.96;40.07
73024;BME280;61199;47.526;8.538;2023-03-04T14:15:21;96651.06;;;14.23;41.49
73024;BME280;61199;47.526;8.538;2023-03-04T14:17:53;96661.34;;;14.68;41.06
73024;BME280;61199;47.526;8.538;2023-03-04T14:22:52;96651.72;;;13.90;42.02
73024;BME280;61199;47.526;8.538;2023-03-04T14:25:25;96649.56;;;14.38;41.04
73024;BME280;61199;47.526;8.538;2023-03-04T14:28:09;96643.78;;;14.77;40.62
73024;BME280;61199;47.526;8.538;2023-03-04T14:30:37;96636.91;;;15.09;39.76
73024;BME280;61199;47.526;8.538;2023-03-04T14:33:14;96641.81;;;14.54;40.72
73024;BME280;61199;47.526;8.538;2023-03-04T14:35:47;96639.41;;;14.08;41.71
73024;BME280;61199;47.526;8.538;2023-03-04T14:38:24;96646.94;;;13.58;43.57
73024;BME280;61199;47.526;8.538;2023-03-04T14:40:56;96628.31;;;13.42;43.82
73024;BME280;61199;47.526;8.538;2023-03-04T14:43:26;96628.84;;;13.73;42.94
73024;BME280;61199;47.526;8.538;2023-03-04T14:45:55;96621.28;;;13.60;42.44
73024;BME280;61199;47.526;8.538;2023-03-04T14:48:28;96622.75;;;13.45;43.22